createdAt,value
2023-03-05T00:02:09.353Z,22.10
2023-03-05T00:04:38.520Z,22.10
2023-03-05T00:07:09.416Z,22.10
2023-03-05T00:09:38.611Z,22.00
2023-03-05T00:12:09.795Z,22.00
2023-03-05T00:14:38.959Z,22.00
2023-03-05T00:17:08.112Z,22.00
2023-03-05T00:19:37.352Z,22.00
2023-03-05T00:22:06.681Z,22.00
2023-03-05T00:24:35.886Z,22.00
2023-03-05T00:27:05.396Z,21.90
2023-03-05T00:29:36.024Z,21.90
2023-03-05T00:32:05.244Z,21.90
2023-03-05T00:34:34.389Z,21.90
2023-03-05T00:37:03.790Z,21.90
2023-03-05T00:39:32.951Z,21.90
2023-03-05T00:42:02.123Z,21.90
2023-03-05T00:44:31.309Z,21.90
2023-03-05T00:47:01.950Z,21.80
2023-03-05T00:49:31.196Z,21.90
2023-03-05T00:52:00.413Z,21.80
2023-03-05T00:54:29.607Z,21.80
2023-03-05T00:56:58.758Z,21.80
2023-03-05T00:59:28.026Z,21.80
2023-03-05T01:01:57.211Z,21.80
2023-03-05T01:04:28.067Z,21.80
2023-03-05T01:06:57.216Z,21.80
2023-03-05T01:09:26.645Z,21.70
2023-03-05T01:11:56.259Z,21.70
2023-03-05T01:14:27.926Z,21.80
2023-03-05T01:16:57.253Z,21.70
2023-03-05T01:19:27.869Z,21.70
2023-03-05T01:21:57.402Z,21.70
2023-03-05T01:24:26.608Z,21.60
2023-03-05T01:26:56.012Z,21.60
2023-03-05T01:29:25.200Z,21.60
2023-03-05T01:31:54.497Z,21.60
2023-03-05T01:34:23.913Z,21.60
2023-03-05T01:36:54.610Z,21.60
2023-03-05T01:39:23.811Z,21.60
2023-03-05T01:41:53.111Z,21.60
2023-03-05T01:44:27.357Z,21.60
2023-03-05T01:46:56.761Z,21.60
2023-03-05T01:49:28.163Z,21.60
2023-03-05T01:52:04.422Z,21.60
2023-03-05T01:54:36.732Z,21.60
2023-03-05T01:57:10.999Z,21.50
2023-03-05T01:59:42.183Z,21.60
2023-03-05T02:02:11.469Z,21.50
2023-03-05T02:04:47.381Z,21.50
2023-03-05T02:07:18.563Z,21.50
2023-03-05T02:09:47.782Z,21.50
2023-03-05T02:12:17.745Z,21.50
2023-03-05T02:14:49.207Z,21.50
2023-03-05T02:17:18.818Z,21.50
2023-03-05T02:19:49.919Z,21.40
2023-03-05T02:22:22.739Z,21.40
2023-03-05T02:24:52.310Z,21.40
2023-03-05T02:27:27.380Z,21.40
2023-03-05T02:29:56.989Z,21.40
2023-03-05T02:32:26.193Z,21.40
2023-03-05T02:34:55.373Z,21.40
2023-03-05T02:37:26.237Z,21.30
2023-03-05T02:39:55.421Z,21.30
2023-03-05T02:42:25.117Z,21.30
2023-03-05T02:44:54.257Z,21.30
2023-03-05T02:47:23.440Z,21.30
2023-03-05T02:49:53.062Z,21.30
2023-03-05T02:52:23.441Z,21.30
2023-03-05T02:54:55.274Z,21.30
2023-03-05T02:57:26.515Z,21.30
2023-03-05T02:59:57.097Z,21.30
2023-03-05T03:02:26.326Z,21.20
2023-03-05T03:04:55.510Z,21.20
2023-03-05T03:07:24.834Z,21.20
2023-03-05T03:09:55.449Z,21.20
2023-03-05T03:12:24.602Z,21.20
2023-03-05T03:14:53.794Z,21.20
2023-03-05T03:17:23.066Z,21.20
2023-03-05T03:19:52.260Z,21.20
2023-03-05T03:22:21.446Z,21.20
2023-03-05T03:24:50.675Z,21.20
2023-03-05T03:27:21.248Z,21.20
2023-03-05T03:29:50.440Z,21.10
2023-03-05T03:32:19.843Z,21.10
2023-03-05T03:34:49.244Z,21.10
2023-03-05T03:37:18.515Z,21.10
2023-03-05T03:39:47.734Z,21.10
2023-03-05T03:42:21.226Z,21.10
2023-03-05T03:44:51.049Z,21.10
2023-03-05T03:47:20.551Z,21.10
2023-03-05T03:49:49.858Z,21.10
2023-03-05T03:52:19.171Z,21.00
2023-03-05T03:54:48.308Z,21.00
2023-03-05T03:57:17.512Z,21.00
2023-03-05T03:59:48.097Z,21.00
2023-03-05T04:02:17.415Z,21.00
2023-03-05T04:04:46.680Z,21.00
2023-03-05T04:07:15.933Z,21.00
2023-03-05T04:09:45.276Z,21.00
2023-03-05T04:12:18.479Z,21.00
2023-03-05T04:14:50.038Z,21.00
2023-03-05T04:17:19.497Z,21.00
2023-03-05T04:19:48.622Z,21.00
2023-03-05T04:22:19.092Z,21.00
2023-03-05T04:24:48.368Z,20.90
2023-03-05T04:27:17.571Z,20.90
2023-03-05T04:29:48.442Z,20.90
2023-03-05T04:32:23.375Z,20.90
2023-03-05T04:34:52.842Z,20.90
2023-03-05T04:37:22.024Z,20.90
2023-03-05T04:39:51.170Z,20.90
2023-03-05T04:42:21.253Z,20.90
2023-03-05T04:44:52.749Z,20.90
2023-03-05T04:47:22.326Z,20.90
2023-03-05T04:49:51.607Z,20.90
2023-03-05T04:52:20.819Z,20.90
2023-03-05T04:54:49.929Z,20.90
2023-03-05T04:57:19.698Z,20.80
2023-03-05T04:59:48.845Z,20.80
2023-03-05T05:02:19.441Z,20.80
2023-03-05T05:04:48.820Z,20.80
2023-03-05T05:07:18.147Z,20.80
2023-03-05T05:09:47.392Z,20.80
2023-03-05T05:12:16.554Z,20.80
2023-03-05T05:14:45.759Z,20.80
2023-03-05T05:17:14.925Z,20.80
2023-03-05T05:19:45.508Z,20.80
2023-03-05T05:22:14.703Z,20.80
2023-03-05T05:24:43.937Z,20.70
2023-03-05T05:27:13.212Z,20.70
2023-03-05T05:29:42.409Z,20.70
2023-03-05T05:32:11.821Z,20.70
2023-03-05T05:34:40.965Z,20.70
2023-03-05T05:37:11.670Z,20.70
2023-03-05T05:39:40.876Z,20.70
2023-03-05T05:42:10.298Z,20.70
2023-03-05T05:44:39.417Z,20.70
2023-03-05T05:47:08.891Z,20.70
2023-03-05T05:49:38.079Z,20.70
2023-03-05T05:52:07.355Z,20.60
2023-03-05T05:54:38.022Z,20.60
2023-03-05T05:57:07.471Z,20.60
2023-03-05T05:59:37.631Z,20.60
2023-03-05T06:02:08.029Z,20.60
2023-03-05T06:04:37.667Z,20.60
2023-03-05T06:07:07.015Z,20.60
2023-03-05T06:09:38.476Z,20.60
2023-03-05T06:12:09.017Z,20.60
2023-03-05T06:14:38.276Z,20.60
2023-03-05T06:17:07.553Z,20.60
2023-03-05T06:19:36.743Z,20.60
2023-03-05T06:22:06.977Z,20.60
2023-03-05T06:24:38.490Z,20.50
2023-03-05T06:27:07.988Z,20.50
2023-03-05T06:29:37.403Z,20.50
2023-03-05T06:32:07.254Z,20.50
2023-03-05T06:34:36.580Z,20.50
2023-03-05T06:37:05.961Z,20.50
2023-03-05T06:39:35.314Z,20.50
2023-03-05T06:42:06.306Z,20.50
2023-03-05T06:44:35.491Z,20.50
2023-03-05T06:47:06.750Z,20.50
2023-03-05T06:49:36.035Z,20.50
2023-03-05T06:52:05.781Z,20.50
2023-03-05T06:54:35.110Z,20.50
2023-03-05T06:57:05.898Z,20.50
2023-03-05T06:59:35.037Z,20.50
2023-03-05T07:02:04.263Z,20.50
2023-03-05T07:04:33.497Z,20.50
2023-03-05T07:07:02.746Z,20.50
2023-03-05T07:09:32.045Z,20.40
2023-03-05T07:12:01.182Z,20.40
2023-03-05T07:14:31.727Z,20.40
2023-03-05T07:17:01.037Z,20.40
2023-03-05T07:19:30.202Z,20.40
2023-03-05T07:21:59.460Z,20.40
2023-03-05T07:24:30.139Z,20.40
2023-03-05T07:26:59.476Z,20.40
2023-03-05T07:29:29.912Z,20.50
2023-03-05T07:32:00.589Z,20.60
2023-03-05T07:34:29.898Z,20.80
2023-03-05T07:36:59.428Z,21.00
2023-03-05T07:39:28.871Z,21.20
2023-03-05T07:41:58.173Z,21.30
2023-03-05T07:44:32.899Z,21.50
2023-03-05T07:47:03.676Z,21.60
2023-03-05T07:49:33.061Z,21.70
2023-03-05T07:52:02.597Z,21.80
2023-03-05T07:54:32.510Z,21.80
2023-03-05T07:57:02.718Z,21.90
2023-03-05T07:59:32.861Z,21.90
2023-03-05T08:02:03.853Z,22.00
2023-03-05T08:04:33.563Z,22.00
2023-03-05T08:07:03.791Z,21.90
2023-03-05T08:09:33.065Z,21.90
2023-03-05T08:12:02.257Z,21.90
2023-03-05T08:14:52.779Z,21.90
2023-03-05T08:17:23.989Z,22.00
2023-03-05T08:19:58.501Z,22.00
2023-03-05T08:22:29.120Z,22.00
2023-03-05T08:24:59.679Z,22.00
2023-03-05T08:27:29.243Z,22.00
2023-03-05T08:29:58.493Z,22.00
2023-03-05T08:32:30.236Z,22.00
2023-03-05T08:35:00.193Z,22.00
2023-03-05T08:37:29.837Z,22.00
2023-03-05T08:39:59.288Z,22.10
2023-03-05T08:42:28.578Z,22.00
2023-03-05T08:44:57.891Z,22.10
2023-03-05T08:47:28.791Z,22.10
2023-03-05T08:49:58.879Z,22.10
2023-03-05T08:52:28.304Z,22.20
2023-03-05T08:54:57.688Z,22.20
2023-03-05T08:57:26.938Z,22.20
2023-03-05T08:59:56.750Z,22.20
2023-03-05T09:02:26.255Z,22.30
2023-03-05T09:04:56.991Z,22.30
2023-03-05T09:07:26.478Z,22.40
2023-03-05T09:09:55.666Z,22.40
2023-03-05T09:12:25.004Z,22.50
2023-03-05T09:14:56.197Z,22.40
2023-03-05T09:17:25.910Z,22.50
2023-03-05T09:19:57.857Z,22.50
2023-03-05T09:22:27.102Z,22.50
2023-03-05T09:24:56.317Z,22.50
2023-03-05T09:27:25.994Z,22.50
2023-03-05T09:29:55.826Z,22.60
2023-03-05T09:32:25.018Z,22.60
2023-03-05T09:34:54.245Z,22.60
2023-03-05T09:37:25.020Z,22.70
2023-03-05T09:39:54.197Z,22.70
2023-03-05T09:42:34.362Z,22.60
2023-03-05T09:45:18.587Z,22.60
2023-03-05T09:47:59.356Z,22.60
2023-03-05T09:50:37.677Z,22.60
2023-03-05T09:53:17.985Z,22.70
2023-03-05T09:55:52.072Z,22.70
2023-03-05T09:58:36.707Z,22.80
2023-03-05T10:01:10.060Z,22.80
2023-03-05T10:03:52.488Z,22.80
2023-03-05T10:06:26.542Z,22.90
2023-03-05T10:09:00.119Z,22.90
2023-03-05T10:11:51.504Z,22.90
2023-03-05T10:14:29.671Z,22.90
2023-03-05T10:17:38.283Z,22.90
2023-03-05T10:20:36.963Z,22.90
2023-03-05T10:23:21.520Z,23.00
2023-03-05T10:26:22.665Z,22.90
2023-03-05T10:29:03.490Z,23.00
2023-03-05T10:31:39.711Z,23.00
2023-03-05T10:34:39.636Z,23.10
2023-03-05T10:37:38.484Z,23.10
2023-03-05T10:40:20.105Z,23.10
2023-03-05T10:42:57.874Z,23.10
2023-03-05T10:45:32.302Z,23.10
2023-03-05T10:48:07.601Z,23.10
2023-03-05T10:50:41.741Z,23.10
2023-03-05T10:53:21.554Z,23.10
2023-03-05T10:55:56.270Z,23.10
2023-03-05T10:58:27.345Z,23.10
2023-03-05T11:01:05.917Z,23.10
2023-03-05T11:03:51.074Z,23.20
2023-03-05T11:06:37.425Z,23.10
2023-03-05T11:09:24.391Z,23.20
2023-03-05T11:12:12.847Z,23.20
2023-03-05T11:14:45.689Z,23.20
2023-03-05T11:17:33.043Z,23.10
2023-03-05T11:20:34.034Z,23.00
2023-03-05T11:23:10.873Z,22.90
2023-03-05T11:25:54.319Z,22.80
2023-03-05T11:28:33.012Z,22.80
2023-03-05T11:31:09.032Z,22.70
2023-03-05T11:33:39.063Z,22.60
2023-03-05T11:36:25.218Z,22.60
2023-03-05T11:38:56.872Z,22.60
2023-03-05T11:41:34.009Z,22.50
2023-03-05T11:44:05.926Z,22.50
2023-03-05T11:46:42.465Z,22.40
2023-03-05T11:49:17.283Z,22.40
2023-03-05T11:51:54.383Z,22.30
2023-03-05T11:54:31.799Z,22.30
2023-03-05T11:57:04.051Z,22.30
2023-03-05T11:59:37.165Z,22.20
2023-03-05T12:02:19.710Z,22.20
2023-03-05T12:04:50.127Z,22.20
2023-03-05T12:07:23.686Z,22.10
2023-03-05T12:09:54.505Z,22.10
2023-03-05T12:12:38.580Z,22.10
2023-03-05T12:15:35.128Z,22.00
2023-03-05T12:18:27.617Z,22.00
2023-03-05T12:21:05.775Z,22.00
2023-03-05T12:23:50.013Z,21.90
2023-03-05T12:26:19.811Z,21.90
2023-03-05T12:29:01.479Z,21.90
2023-03-05T12:31:39.535Z,21.90
2023-03-05T12:34:48.828Z,21.90
2023-03-05T12:37:51.446Z,21.90
2023-03-05T12:40:25.586Z,21.90
2023-03-05T12:42:57.135Z,21.80
2023-03-05T12:45:40.891Z,21.80
2023-03-05T12:48:45.585Z,21.80
2023-03-05T12:51:41.191Z,21.80
2023-03-05T12:54:31.089Z,21.80
2023-03-05T12:57:02.737Z,21.80
2023-03-05T12:59:43.577Z,21.70
2023-03-05T13:02:23.247Z,21.70
2023-03-05T13:04:54.688Z,21.70
2023-03-05T13:07:25.528Z,21.70
2023-03-05T13:09:55.937Z,21.70
2023-03-05T13:12:27.466Z,21.60
2023-03-05T13:15:01.341Z,21.60
2023-03-05T13:17:33.673Z,21.60
2023-03-05T13:20:07.637Z,21.60
2023-03-05T13:22:39.135Z,21.60
2023-03-05T13:25:17.198Z,21.60
2023-03-05T13:27:46.456Z,21.60
2023-03-05T13:30:23.372Z,21.60
2023-03-05T13:32:54.436Z,21.60
2023-03-05T13:35:24.311Z,21.60
2023-03-05T13:37:55.105Z,21.50
2023-03-05T13:40:26.613Z,21.50
2023-03-05T13:42:56.860Z,21.50
2023-03-05T13:45:28.927Z,21.50
2023-03-05T13:48:02.322Z,21.50
2023-03-05T13:50:33.795Z,21.50
2023-03-05T13:53:19.437Z,21.50
2023-03-05T13:55:49.209Z,21.50
2023-03-05T13:58:48.711Z,21.40
2023-03-05T14:01:27.866Z,21.40
2023-03-05T14:03:58.960Z,21.40
2023-03-05T14:06:31.143Z,21.40
2023-03-05T14:09:07.332Z,21.40
2023-03-05T14:11:37.396Z,21.40
2023-03-05T14:14:17.921Z,21.30
2023-03-05T14:16:47.599Z,21.30
2023-03-05T14:19:34.967Z,21.30
2023-03-05T14:22:05.602Z,21.30
2023-03-05T14:24:36.259Z,21.30
2023-03-05T14:27:13.559Z,21.30
2023-03-05T14:29:46.869Z,21.30
2023-03-05T14:32:24.659Z,21.30
2023-03-05T14:34:58.029Z,21.30
2023-03-05T14:37:30.919Z,21.30
2023-03-05T14:40:05.601Z,21.20
2023-03-05T14:42:39.183Z,21.20
2023-03-05T14:45:14.231Z,21.20
2023-03-05T14:47:43.766Z,21.20
2023-03-05T14:50:16.590Z,21.20
2023-03-05T14:52:46.527Z,21.20
2023-03-05T14:55:19.398Z,21.20
2023-03-05T14:57:51.781Z,21.20
2023-03-05T15:00:23.116Z,21.20
2023-03-05T15:02:52.537Z,21.20
2023-03-05T15:05:22.242Z,21.10
2023-03-05T15:07:52.710Z,21.20
2023-03-05T15:10:26.847Z,21.10
2023-03-05T15:12:56.151Z,21.10
2023-03-05T15:15:25.375Z,21.10
2023-03-05T15:17:55.251Z,21.10
2023-03-05T15:20:27.364Z,21.10
2023-03-05T15:22:57.033Z,21.10
2023-03-05T15:25:28.889Z,21.10
2023-03-05T15:27:59.701Z,21.10
2023-03-05T15:30:33.436Z,21.10
2023-03-05T15:33:05.440Z,21.10
2023-03-05T15:35:35.323Z,21.20
2023-03-05T15:38:05.113Z,21.40
2023-03-05T15:40:36.973Z,21.50
2023-03-05T15:43:07.212Z,21.60
2023-03-05T15:45:36.852Z,21.70
2023-03-05T15:48:06.968Z,21.70
2023-03-05T15:50:36.311Z,21.70
2023-03-05T15:53:05.983Z,21.70
2023-03-05T15:55:40.297Z,21.70
2023-03-05T15:58:10.358Z,21.80
2023-03-05T16:00:43.205Z,21.80
2023-03-05T16:03:12.973Z,21.80
2023-03-05T16:05:42.594Z,21.80
2023-03-05T16:08:12.098Z,21.80
2023-03-05T16:10:43.047Z,21.90
2023-03-05T16:13:14.966Z,21.90
2023-03-05T16:15:44.912Z,22.00
2023-03-05T16:18:16.869Z,22.00
2023-03-05T16:20:46.568Z,22.00
2023-03-05T16:23:16.058Z,22.00
2023-03-05T16:25:46.963Z,22.00
2023-03-05T16:28:16.661Z,22.00
2023-03-05T16:30:46.506Z,22.00
2023-03-05T16:33:16.041Z,22.00
2023-03-05T16:35:45.836Z,22.10
2023-03-05T16:38:16.606Z,22.10
2023-03-05T16:41:08.184Z,22.10
2023-03-05T16:43:37.106Z,22.10
2023-03-05T16:46:06.802Z,22.00
2023-03-05T16:48:36.148Z,22.00
2023-03-05T16:51:06.522Z,22.00
2023-03-05T16:53:35.819Z,22.00
2023-03-05T16:56:08.125Z,22.00
2023-03-05T16:58:39.014Z,22.00
2023-03-05T17:01:11.323Z,22.00
2023-03-05T17:03:41.756Z,22.00
2023-03-05T17:06:13.264Z,22.00
2023-03-05T17:08:43.445Z,22.00
2023-03-05T17:11:15.278Z,22.00
2023-03-05T17:13:47.644Z,22.00
2023-03-05T17:16:19.942Z,22.00
2023-03-05T17:18:49.751Z,22.00
2023-03-05T17:21:19.454Z,22.00
2023-03-05T17:23:48.821Z,22.00
2023-03-05T17:26:21.701Z,22.00
2023-03-05T17:28:53.573Z,22.00
2023-03-05T17:31:24.369Z,22.00
2023-03-05T17:33:55.522Z,22.00
2023-03-05T17:36:26.858Z,22.00
2023-03-05T17:38:56.636Z,22.00
2023-03-05T17:41:27.390Z,22.00
2023-03-05T17:43:56.770Z,22.00
2023-03-05T17:46:26.251Z,22.00
2023-03-05T17:48:55.428Z,22.00
2023-03-05T17:51:25.564Z,22.00
2023-03-05T17:53:54.789Z,22.00
2023-03-05T17:56:25.235Z,22.00
2023-03-05T17:58:57.976Z,22.00
2023-03-05T18:01:34.865Z,22.00
2023-03-05T18:04:04.366Z,22.00
2023-03-05T18:06:33.969Z,22.00
2023-03-05T18:09:03.322Z,22.10
2023-03-05T18:11:34.202Z,22.10
2023-03-05T18:14:05.746Z,22.10
2023-03-05T18:16:37.087Z,22.10
2023-03-05T18:19:06.650Z,22.10
2023-03-05T18:21:37.206Z,22.10
2023-03-05T18:24:07.707Z,22.10
2023-03-05T18:26:37.053Z,22.10
2023-03-05T18:29:08.137Z,22.10
2023-03-05T18:31:38.224Z,22.10
2023-03-05T18:34:07.613Z,22.10
2023-03-05T18:36:36.821Z,22.10
2023-03-05T18:39:06.177Z,22.40
2023-03-05T18:41:35.379Z,22.40
2023-03-05T18:44:07.390Z,22.30
2023-03-05T18:46:38.297Z,22.30
2023-03-05T18:49:08.714Z,22.30
2023-03-05T18:51:38.986Z,22.30
2023-03-05T18:54:08.310Z,22.30
2023-03-05T18:56:49.919Z,22.30
2023-03-05T18:59:19.240Z,22.30
2023-03-05T19:01:49.947Z,22.30
2023-03-05T19:04:43.323Z,22.30
2023-03-05T19:07:20.364Z,22.40
2023-03-05T19:09:54.928Z,22.40
2023-03-05T19:12:26.663Z,22.40
2023-03-05T19:14:55.894Z,22.40
2023-03-05T19:17:27.422Z,22.40
2023-03-05T19:19:59.197Z,22.40
2023-03-05T19:22:29.665Z,22.40
2023-03-05T19:25:02.002Z,22.40
2023-03-05T19:27:31.565Z,22.40
2023-03-05T19:30:01.520Z,22.40
2023-03-05T19:32:32.991Z,22.40
2023-03-05T19:35:02.755Z,22.40
2023-03-05T19:37:33.504Z,22.40
2023-03-05T19:40:03.418Z,22.40
2023-03-05T19:42:33.478Z,22.40
2023-03-05T19:45:03.175Z,22.40
2023-03-05T19:47:34.600Z,22.40
2023-03-05T19:50:05.631Z,22.40
2023-03-05T19:52:35.554Z,22.40
2023-03-05T19:55:05.256Z,22.40
2023-03-05T19:57:35.144Z,22.40
2023-03-05T20:00:05.777Z,22.40
2023-03-05T20:02:36.782Z,22.40
2023-03-05T20:05:07.292Z,22.40
2023-03-05T20:07:36.769Z,22.40
2023-03-05T20:10:07.185Z,22.40
2023-03-05T20:12:36.829Z,22.40
2023-03-05T20:15:07.299Z,22.40
2023-03-05T20:17:38.638Z,22.40
2023-03-05T20:20:09.508Z,22.40
2023-03-05T20:22:39.532Z,22.40
2023-03-05T20:25:09.481Z,22.40
2023-03-05T20:27:39.033Z,22.40
2023-03-05T20:30:10.849Z,22.40
2023-03-05T20:32:42.435Z,22.40
2023-03-05T20:35:15.543Z,22.30
2023-03-05T20:38:00.448Z,22.30
2023-03-05T20:40:29.730Z,22.30
2023-03-05T20:42:58.899Z,22.20
2023-03-05T20:45:28.172Z,22.20
2023-03-05T20:47:58.750Z,22.20
2023-03-05T20:50:29.133Z,22.20
2023-03-05T20:52:58.952Z,22.20
2023-03-05T20:55:28.885Z,22.10
2023-03-05T20:57:58.432Z,22.10
2023-03-05T21:00:27.957Z,22.00
2023-03-05T21:02:58.914Z,22.00
2023-03-05T21:05:30.348Z,21.90
2023-03-05T21:08:00.469Z,21.90
2023-03-05T21:10:29.720Z,21.90
2023-03-05T21:13:00.758Z,21.90
2023-03-05T21:15:31.371Z,21.90
2023-03-05T21:18:02.232Z,21.80
2023-03-05T21:20:32.036Z,21.80
2023-03-05T21:23:01.309Z,21.80
2023-03-05T21:25:31.707Z,21.80
2023-03-05T21:28:03.409Z,21.70
2023-03-05T21:30:35.250Z,21.70
2023-03-05T21:33:09.100Z,21.70
2023-03-05T21:35:39.236Z,21.70
2023-03-05T21:38:09.954Z,21.60
2023-03-05T21:40:43.752Z,21.60
2023-03-05T21:43:13.927Z,21.60
2023-03-05T21:45:44.028Z,21.60
2023-03-05T21:48:15.147Z,21.60
2023-03-05T21:50:46.090Z,21.50
2023-03-05T21:53:16.873Z,21.50
2023-03-05T21:56:03.252Z,21.50
2023-03-05T21:58:33.719Z,21.50
2023-03-05T22:01:03.371Z,21.40
2023-03-05T22:03:34.952Z,21.40
2023-03-05T22:06:04.446Z,21.40
2023-03-05T22:08:33.620Z,21.40
2023-03-05T22:11:03.003Z,21.40
2023-03-05T22:13:32.183Z,21.30
2023-03-05T22:16:01.484Z,21.30
2023-03-05T22:18:32.264Z,21.30
2023-03-05T22:21:03.575Z,21.30
2023-03-05T22:23:35.396Z,21.30
2023-03-05T22:26:06.405Z,21.30
2023-03-05T22:28:39.074Z,21.30
2023-03-05T22:31:08.463Z,21.20
2023-03-05T22:33:37.691Z,21.20
2023-03-05T22:36:13.395Z,21.20
2023-03-05T22:38:42.862Z,21.20
2023-03-05T22:41:14.195Z,21.20
2023-03-05T22:43:43.846Z,21.20
2023-03-05T22:46:15.348Z,21.20
2023-03-05T22:48:44.842Z,21.10
2023-03-05T22:51:16.148Z,21.10
2023-03-05T22:53:46.214Z,21.10
2023-03-05T22:56:16.988Z,21.10
2023-03-05T22:58:46.898Z,21.10
2023-03-05T23:01:17.998Z,21.10
2023-03-05T23:03:55.665Z,21.10
2023-03-05T23:06:26.396Z,21.00
2023-03-05T23:08:55.882Z,21.00
2023-03-05T23:11:25.075Z,21.00
2023-03-05T23:13:54.213Z,21.00
2023-03-05T23:16:23.462Z,21.00
2023-03-05T23:18:52.620Z,21.00
2023-03-05T23:21:21.990Z,20.90
2023-03-05T23:23:53.279Z,20.90
2023-03-05T23:26:22.827Z,20.90
2023-03-05T23:28:52.053Z,20.90
2023-03-05T23:31:21.316Z,20.90
2023-03-05T23:33:50.562Z,20.90
2023-03-05T23:36:20.424Z,20.90
2023-03-05T23:38:51.803Z,20.90
2023-03-05T23:41:22.379Z,20.90
2023-03-05T23:43:51.659Z,20.90
2023-03-05T23:46:20.949Z,20.80
2023-03-05T23:48:50.274Z,20.80
2023-03-05T23:51:19.514Z,20.80
2023-03-05T23:53:48.969Z,20.80
2023-03-05T23:56:18.412Z,20.80
2023-03-05T23:58:48.982Z,20.80
